sensor_id;sensor_type;location;lat;lon;timestamp;pressure;altitude;pressure_sealevel;temperature;humidity
12757;BME280;31601;48.042;12.240;2023-05-14T00:02:02;96093.72;;;12.62;75.82
12757;BME280;31601;48.042;12.240;2023-05-14T00:04:28;96090.47;;;12.53;75.86
12757;BME280;31601;48.042;12.240;2023-05-14T00:06:55;96086.19;;;12.52;75.92
12757;BME280;31601;48.042;12.240;2023-05-14T00:09:21;96081.13;;;12.51;75.69
12757;BME280;31601;48.042;12.240;2023-05-14T00:11:47;96081.97;;;12.58;75.70
12757;BME280;31601;48.042;12.240;2023-05-14T00:14:14;96079.31;;;12.58;75.43
12757;BME280;31601;48.042;12.240;2023-05-14T00:16:40;96079.28;;;12.31;76.48
12757;BME280;31601;48.042;12.240;2023-05-14T00:19:08;96067.53;;;12.34;76.45
12757;BME280;31601;48.042;12.240;2023-05-14T00:21:35;96064.91;;;12.34;76.40
12757;BME280;31601;48.042;12.240;2023-05-14T00:24:01;96071.53;;;12.23;76.76
12757;BME280;31601;48.042;12.240;2023-05-14T00:26:28;96067.13;;;12.24;77.12
12757;BME280;31601;48.042;12.240;2023-05-14T00:28:54;96061.22;;;12.22;77.07
12757;BME280;31601;48.042;12.240;2023-05-14T00:31:21;96061.22;;;12.15;77.20
12757;BME280;31601;48.042;12.240;2023-05-14T00:33:47;96065.47;;;12.16;77.26
12757;BME280;31601;48.042;12.240;2023-05-14T00:36:15;96064.81;;;12.00;77.62
12757;BME280;31601;48.042;12.240;2023-05-14T00:38:41;96068.44;;;11.93;78.47
12757;BME280;31601;48.042;12.240;2023-05-14T00:41:08;96061.16;;;12.02;77.87
12757;BME280;31601;48.042;12.240;2023-05-14T00:43:34;96068.75;;;11.83;78.52
12757;BME280;31601;48.042;12.240;2023-05-14T00:46:01;96064.81;;;12.00;77.98
12757;BME280;31601;48.042;12.240;2023-05-14T00:48:28;96067.75;;;11.84;78.30
12757;BME280;31601;48.042;12.240;2023-05-14T00:50:54;96058.53;;;12.02;77.96
12757;BME280;31601;48.042;12.240;2023-05-14T00:53:22;96064.63;;;12.09;77.61
12757;BME280;31601;48.042;12.240;2023-05-14T00:55:49;96057.97;;;12.13;77.30
12757;BME280;31601;48.042;12.240;2023-05-14T00:58:16;96053.91;;;12.04;77.69
12757;BME280;31601;48.042;12.240;2023-05-14T01:00:43;96052.94;;;12.18;77.42
12757;BME280;31601;48.042;12.240;2023-05-14T01:03:09;96054.53;;;12.12;77.28
12757;BME280;31601;48.042;12.240;2023-05-14T01:05:41;96054.72;;;12.11;77.28
12757;BME280;31601;48.042;12.240;2023-05-14T01:08:14;96047.19;;;11.94;78.01
12757;BME280;31601;48.042;12.240;2023-05-14T01:10:48;96053.53;;;12.20;77.29
12757;BME280;31601;48.042;12.240;2023-05-14T01:13:18;96057.38;;;12.17;77.30
12757;BME280;31601;48.042;12.240;2023-05-14T01:15:48;96054.97;;;12.29;77.08
12757;BME280;31601;48.042;12.240;2023-05-14T01:18:17;96049.31;;;12.19;77.29
12757;BME280;31601;48.042;12.240;2023-05-14T01:20:44;96049.66;;;12.03;77.43
12757;BME280;31601;48.042;12.240;2023-05-14T01:23:12;96046.84;;;12.11;77.64
12757;BME280;31601;48.042;12.240;2023-05-14T01:25:39;96057.41;;;12.24;76.97
12757;BME280;31601;48.042;12.240;2023-05-14T01:28:12;96051.34;;;12.30;76.88
12757;BME280;31601;48.042;12.240;2023-05-14T01:30:45;96052.53;;;12.21;77.45
12757;BME280;31601;48.042;12.240;2023-05-14T01:33:15;96046.88;;;12.17;77.42
12757;BME280;31601;48.042;12.240;2023-05-14T01:35:42;96052.47;;;12.08;77.55
12757;BME280;31601;48.042;12.240;2023-05-14T01:38:12;96047.09;;;11.81;78.45
12757;BME280;31601;48.042;12.240;2023-05-14T01:40:40;96050.50;;;12.10;77.72
12757;BME280;31601;48.042;12.240;2023-05-14T01:43:07;96047.22;;;12.08;77.51
12757;BME280;31601;48.042;12.240;2023-05-14T01:45:34;96048.00;;;12.02;77.62
12757;BME280;31601;48.042;12.240;2023-05-14T01:48:00;96046.94;;;11.89;78.12
12757;BME280;31601;48.042;12.240;2023-05-14T01:50:27;96042.34;;;12.05;77.44
12757;BME280;31601;48.042;12.240;2023-05-14T01:52:53;96036.59;;;11.81;78.19
12757;BME280;31601;48.042;12.240;2023-05-14T01:55:21;96046.06;;;11.75;78.29
12757;BME280;31601;48.042;12.240;2023-05-14T01:57:48;96039.63;;;11.78;78.45
12757;BME280;31601;48.042;12.240;2023-05-14T02:00:15;96028.63;;;11.68;78.66
12757;BME280;31601;48.042;12.240;2023-05-14T02:02:42;96028.09;;;11.79;78.48
12757;BME280;31601;48.042;12.240;2023-05-14T02:05:09;96033.66;;;12.04;77.63
12757;BME280;31601;48.042;12.240;2023-05-14T02:07:36;96024.06;;;11.83;78.40
12757;BME280;31601;48.042;12.240;2023-05-14T02:10:02;96022.50;;;11.95;77.83
12757;BME280;31601;48.042;12.240;2023-05-14T02:12:30;96032.22;;;11.95;78.00
12757;BME280;31601;48.042;12.240;2023-05-14T02:14:57;96033.50;;;11.71;78.49
12757;BME280;31601;48.042;12.240;2023-05-14T02:17:24;96032.91;;;11.69;78.81
12757;BME280;31601;48.042;12.240;2023-05-14T02:19:51;96023.53;;;11.94;78.21
12757;BME280;31601;48.042;12.240;2023-05-14T02:22:17;96025.28;;;11.87;78.01
12757;BME280;31601;48.042;12.240;2023-05-14T02:24:44;96030.72;;;11.79;78.17
12757;BME280;31601;48.042;12.240;2023-05-14T02:27:10;96028.91;;;11.86;77.79
12757;BME280;31601;48.042;12.240;2023-05-14T02:29:38;96024.59;;;12.07;77.21
12757;BME280;31601;48.042;12.240;2023-05-14T02:32:05;96024.97;;;12.04;77.39
12757;BME280;31601;48.042;12.240;2023-05-14T02:34:32;96025.34;;;11.94;77.56
12757;BME280;31601;48.042;12.240;2023-05-14T02:36:59;96023.25;;;11.82;78.06
12757;BME280;31601;48.042;12.240;2023-05-14T02:39:25;96016.97;;;11.77;78.12
12757;BME280;31601;48.042;12.240;2023-05-14T02:41:52;96019.38;;;11.78;78.44
12757;BME280;31601;48.042;12.240;2023-05-14T02:44:18;96015.75;;;11.73;78.30
12757;BME280;31601;48.042;12.240;2023-05-14T02:46:46;96024.38;;;11.60;78.94
12757;BME280;31601;48.042;12.240;2023-05-14T02:49:13;96011.28;;;11.67;79.07
12757;BME280;31601;48.042;12.240;2023-05-14T02:51:39;96022.50;;;11.47;79.20
12757;BME280;31601;48.042;12.240;2023-05-14T02:54:05;96019.38;;;11.78;78.37
12757;BME280;31601;48.042;12.240;2023-05-14T02:56:32;96012.63;;;11.97;77.91
12757;BME280;31601;48.042;12.240;2023-05-14T02:58:58;96013.03;;;11.94;77.85
12757;BME280;31601;48.042;12.240;2023-05-14T03:01:25;96015.66;;;11.94;77.76
12757;BME280;31601;48.042;12.240;2023-05-14T03:03:52;96014.56;;;11.82;78.14
12757;BME280;31601;48.042;12.240;2023-05-14T03:06:19;96007.97;;;11.93;77.75
12757;BME280;31601;48.042;12.240;2023-05-14T03:08:45;96005.91;;;11.88;77.89
12757;BME280;31601;48.042;12.240;2023-05-14T03:11:11;96008.38;;;11.96;77.58
12757;BME280;31601;48.042;12.240;2023-05-14T03:13:38;96004.50;;;11.92;77.74
12757;BME280;31601;48.042;12.240;2023-05-14T03:16:05;96000.00;;;11.79;77.94
12757;BME280;31601;48.042;12.240;2023-05-14T03:18:31;96001.34;;;11.62;78.39
12757;BME280;31601;48.042;12.240;2023-05-14T03:21:00;96008.06;;;11.78;78.02
12757;BME280;31601;48.042;12.240;2023-05-14T03:23:28;96015.47;;;12.03;77.28
12757;BME280;31601;48.042;12.240;2023-05-14T03:25:56;96008.28;;;11.83;77.21
12757;BME280;31601;48.042;12.240;2023-05-14T03:28:23;96010.81;;;11.98;76.98
12757;BME280;31601;48.042;12.240;2023-05-14T03:30:50;96008.41;;;12.10;76.35
12757;BME280;31601;48.042;12.240;2023-05-14T03:33:16;96007.03;;;12.27;75.93
12757;BME280;31601;48.042;12.240;2023-05-14T03:35:43;96012.44;;;12.12;76.02
12757;BME280;31601;48.042;12.240;2023-05-14T03:38:10;96007.47;;;11.76;77.60
12757;BME280;31601;48.042;12.240;2023-05-14T03:40:37;96008.56;;;11.95;76.57
12757;BME280;31601;48.042;12.240;2023-05-14T03:43:03;96006.19;;;12.07;76.45
12757;BME280;31601;48.042;12.240;2023-05-14T03:45:30;96000.34;;;12.18;76.16
12757;BME280;31601;48.042;12.240;2023-05-14T03:47:57;96011.78;;;11.97;76.67
12757;BME280;31601;48.042;12.240;2023-05-14T03:50:23;96011.84;;;12.04;76.39
12757;BME280;31601;48.042;12.240;2023-05-14T03:52:50;96011.84;;;12.04;76.13
12757;BME280;31601;48.042;12.240;2023-05-14T03:55:19;96007.97;;;11.99;76.67
12757;BME280;31601;48.042;12.240;2023-05-14T03:57:46;96005.44;;;11.78;76.94
12757;BME280;31601;48.042;12.240;2023-05-14T04:00:14;96010.91;;;11.83;77.15
12757;BME280;31601;48.042;12.240;2023-05-14T04:02:41;96007.47;;;11.82;77.35
12757;BME280;31601;48.042;12.240;2023-05-14T04:05:08;95997.94;;;11.68;77.72
12757;BME280;31601;48.042;12.240;2023-05-14T04:07:34;96004.34;;;12.00;76.50
12757;BME280;31601;48.042;12.240;2023-05-14T04:10:01;96006.38;;;12.12;76.29
12757;BME280;31601;48.042;12.240;2023-05-14T04:12:29;96002.50;;;12.01;76.42
12757;BME280;31601;48.042;12.240;2023-05-14T04:14:57;95995.72;;;11.78;77.36
12757;BME280;31601;48.042;12.240;2023-05-14T04:17:23;95996.97;;;11.89;77.35
12757;BME280;31601;48.042;12.240;2023-05-14T04:19:50;96002.22;;;11.76;77.65
12757;BME280;31601;48.042;12.240;2023-05-14T04:22:16;96002.53;;;11.53;78.89
12757;BME280;31601;48.042;12.240;2023-05-14T04:24:42;96007.56;;;11.96;77.43
12757;BME280;31601;48.042;12.240;2023-05-14T04:27:09;96001.88;;;11.92;77.27
12757;BME280;31601;48.042;12.240;2023-05-14T04:29:36;96005.78;;;11.61;78.29
12757;BME280;31601;48.042;12.240;2023-05-14T04:32:03;96000.59;;;11.75;77.42
12757;BME280;31601;48.042;12.240;2023-05-14T04:34:30;96007.00;;;12.14;76.43
12757;BME280;31601;48.042;12.240;2023-05-14T04:36:58;96001.97;;;12.26;75.87
12757;BME280;31601;48.042;12.240;2023-05-14T04:39:25;96001.16;;;12.32;75.65
12757;BME280;31601;48.042;12.240;2023-05-14T04:41:51;96001.97;;;12.32;75.64
12757;BME280;31601;48.042;12.240;2023-05-14T04:44:18;96007.63;;;12.16;75.84
12757;BME280;31601;48.042;12.240;2023-05-14T04:46:45;96009.41;;;12.15;75.97
12757;BME280;31601;48.042;12.240;2023-05-14T04:49:12;96010.47;;;12.28;75.69
12757;BME280;31601;48.042;12.240;2023-05-14T04:51:38;96014.81;;;11.94;76.31
12757;BME280;31601;48.042;12.240;2023-05-14T04:54:05;96022.78;;;11.72;77.33
12757;BME280;31601;48.042;12.240;2023-05-14T04:56:31;96021.22;;;11.85;76.82
12757;BME280;31601;48.042;12.240;2023-05-14T04:58:58;96017.19;;;11.82;77.51
12757;BME280;31601;48.042;12.240;2023-05-14T05:01:24;96021.19;;;11.71;77.85
12757;BME280;31601;48.042;12.240;2023-05-14T05:03:52;96025.28;;;11.87;77.13
12757;BME280;31601;48.042;12.240;2023-05-14T05:06:19;96022.47;;;11.89;76.91
12757;BME280;31601;48.042;12.240;2023-05-14T05:08:45;96023.94;;;12.05;76.41
12757;BME280;31601;48.042;12.240;2023-05-14T05:11:12;96033.41;;;11.92;77.31
12757;BME280;31601;48.042;12.240;2023-05-14T05:13:38;96039.72;;;12.05;76.51
12757;BME280;31601;48.042;12.240;2023-05-14T05:16:05;96035.75;;;12.35;75.63
12757;BME280;31601;48.042;12.240;2023-05-14T05:18:31;96036.94;;;12.20;75.74
12757;BME280;31601;48.042;12.240;2023-05-14T05:20:59;96033.97;;;12.43;75.05
12757;BME280;31601;48.042;12.240;2023-05-14T05:23:25;96045.25;;;12.23;75.25
12757;BME280;31601;48.042;12.240;2023-05-14T05:25:52;96043.25;;;12.25;75.25
12757;BME280;31601;48.042;12.240;2023-05-14T05:28:18;96033.75;;;12.44;74.17
12757;BME280;31601;48.042;12.240;2023-05-14T05:30:45;96028.50;;;12.51;74.28
12757;BME280;31601;48.042;12.240;2023-05-14T05:33:11;96024.63;;;12.40;73.91
12757;BME280;31601;48.042;12.240;2023-05-14T05:35:38;96026.69;;;12.51;74.36
12757;BME280;31601;48.042;12.240;2023-05-14T05:38:06;96028.06;;;12.21;74.57
12757;BME280;31601;48.042;12.240;2023-05-14T05:40:32;96030.09;;;12.25;74.92
12757;BME280;31601;48.042;12.240;2023-05-14T05:42:59;96025.03;;;12.37;74.37
12757;BME280;31601;48.042;12.240;2023-05-14T05:45:25;96025.91;;;12.64;73.83
12757;BME280;31601;48.042;12.240;2023-05-14T05:47:51;96028.53;;;12.64;73.50
12757;BME280;31601;48.042;12.240;2023-05-14T05:50:18;96028.31;;;12.86;73.20
12757;BME280;31601;48.042;12.240;2023-05-14T05:52:44;96034.19;;;12.61;73.38
12757;BME280;31601;48.042;12.240;2023-05-14T05:55:12;96024.47;;;12.48;73.46
12757;BME280;31601;48.042;12.240;2023-05-14T05:57:39;96026.88;;;12.43;73.73
12757;BME280;31601;48.042;12.240;2023-05-14T06:00:06;96023.47;;;12.76;72.99
12757;BME280;31601;48.042;12.240;2023-05-14T06:02:38;96022.25;;;12.65;73.00
12757;BME280;31601;48.042;12.240;2023-05-14T06:05:05;96022.47;;;12.64;73.01
12757;BME280;31601;48.042;12.240;2023-05-14T06:07:32;96016.78;;;12.74;73.44
12757;BME280;31601;48.042;12.240;2023-05-14T06:09:59;96023.06;;;12.99;72.19
12757;BME280;31601;48.042;12.240;2023-05-14T06:12:27;96023.66;;;13.15;71.68
12757;BME280;31601;48.042;12.240;2023-05-14T06:14:54;96024.63;;;13.40;71.06
12757;BME280;31601;48.042;12.240;2023-05-14T06:17:22;96021.63;;;13.17;70.62
12757;BME280;31601;48.042;12.240;2023-05-14T06:19:48;96022.22;;;13.25;70.36
12757;BME280;31601;48.042;12.240;2023-05-14T06:22:14;96021.59;;;13.43;70.82
12757;BME280;31601;48.042;12.240;2023-05-14T06:24:41;96022.59;;;13.29;70.40
12757;BME280;31601;48.042;12.240;2023-05-14T06:27:08;96016.75;;;13.27;70.62
12757;BME280;31601;48.042;12.240;2023-05-14T06:29:36;96012.91;;;13.10;70.81
12757;BME280;31601;48.042;12.240;2023-05-14T06:32:03;96014.16;;;12.94;72.09
12757;BME280;31601;48.042;12.240;2023-05-14T06:34:30;96010.31;;;12.56;73.07
12757;BME280;31601;48.042;12.240;2023-05-14T06:36:57;96010.53;;;12.75;72.74
12757;BME280;31601;48.042;12.240;2023-05-14T06:39:23;96000.75;;;13.15;71.65
12757;BME280;31601;48.042;12.240;2023-05-14T06:41:50;95990.19;;;13.35;70.11
12757;BME280;31601;48.042;12.240;2023-05-14T06:44:18;95985.22;;;13.72;69.34
12757;BME280;31601;48.042;12.240;2023-05-14T06:46:46;95990.91;;;14.08;67.29
12757;BME280;31601;48.042;12.240;2023-05-14T06:49:12;95983.16;;;13.74;68.74
12757;BME280;31601;48.042;12.240;2023-05-14T06:51:38;95982.69;;;13.32;68.94
12757;BME280;31601;48.042;12.240;2023-05-14T06:54:06;95983.09;;;13.88;68.10
12757;BME280;31601;48.042;12.240;2023-05-14T06:56:33;95983.72;;;14.22;67.61
12757;BME280;31601;48.042;12.240;2023-05-14T06:59:00;95979.16;;;13.65;67.24
12757;BME280;31601;48.042;12.240;2023-05-14T07:01:26;95988.22;;;13.83;67.56
12757;BME280;31601;48.042;12.240;2023-05-14T07:03:54;95984.31;;;13.85;68.16
12757;BME280;31601;48.042;12.240;2023-05-14T07:06:21;95984.00;;;13.68;67.62
12757;BME280;31601;48.042;12.240;2023-05-14T07:08:47;95986.41;;;13.76;67.67
12757;BME280;31601;48.042;12.240;2023-05-14T07:11:14;95998.44;;;13.59;68.41
12757;BME280;31601;48.042;12.240;2023-05-14T07:13:41;95990.28;;;14.12;67.48
12757;BME280;31601;48.042;12.240;2023-05-14T07:16:08;95989.31;;;13.61;68.99
12757;BME280;31601;48.042;12.240;2023-05-14T07:18:35;95986.22;;;13.71;69.16
12757;BME280;31601;48.042;12.240;2023-05-14T07:21:03;95988.84;;;13.71;67.82
12757;BME280;31601;48.042;12.240;2023-05-14T07:23:30;95993.63;;;13.94;67.95
12757;BME280;31601;48.042;12.240;2023-05-14T07:25:57;95998.88;;;14.01;66.13
12757;BME280;31601;48.042;12.240;2023-05-14T07:28:23;95996.47;;;13.93;67.40
12757;BME280;31601;48.042;12.240;2023-05-14T07:30:49;95986.13;;;13.46;68.72
12757;BME280;31601;48.042;12.240;2023-05-14T07:33:16;95989.81;;;13.84;67.87
12757;BME280;31601;48.042;12.240;2023-05-14T07:35:42;95986.84;;;13.73;68.30
12757;BME280;31601;48.042;12.240;2023-05-14T07:38:10;95984.66;;;14.02;68.13
12757;BME280;31601;48.042;12.240;2023-05-14T07:40:36;95988.50;;;14.06;67.11
12757;BME280;31601;48.042;12.240;2023-05-14T07:43:03;95988.59;;;14.25;66.31
12757;BME280;31601;48.042;12.240;2023-05-14T07:45:29;95987.25;;;13.70;67.72
12757;BME280;31601;48.042;12.240;2023-05-14T07:47:56;95991.41;;;13.26;67.96
12757;BME280;31601;48.042;12.240;2023-05-14T07:50:22;95992.97;;;13.54;67.72
12757;BME280;31601;48.042;12.240;2023-05-14T07:52:49;95982.69;;;13.32;68.68
12757;BME280;31601;48.042;12.240;2023-05-14T07:55:17;95985.03;;;13.67;69.00
12757;BME280;31601;48.042;12.240;2023-05-14T07:57:43;95992.94;;;13.60;69.09
12757;BME280;31601;48.042;12.240;2023-05-14T08:00:11;95984.34;;;13.33;69.25
12757;BME280;31601;48.042;12.240;2023-05-14T08:02:37;95986.56;;;13.36;69.32
12757;BME280;31601;48.042;12.240;2023-05-14T08:05:05;95983.00;;;13.69;69.40
12757;BME280;31601;48.042;12.240;2023-05-14T08:07:31;95976.41;;;13.85;68.10
12757;BME280;31601;48.042;12.240;2023-05-14T08:09:58;95985.25;;;14.04;67.57
12757;BME280;31601;48.042;12.240;2023-05-14T08:12:25;95971.78;;;13.81;67.54
12757;BME280;31601;48.042;12.240;2023-05-14T08:14:52;95973.91;;;14.36;66.56
12757;BME280;31601;48.042;12.240;2023-05-14T08:17:19;95969.41;;;14.43;65.25
12757;BME280;31601;48.042;12.240;2023-05-14T08:19:45;95970.97;;;14.50;64.32
12757;BME280;31601;48.042;12.240;2023-05-14T08:22:12;95972.56;;;14.51;64.46
12757;BME280;31601;48.042;12.240;2023-05-14T08:24:38;95976.53;;;14.36;65.66
12757;BME280;31601;48.042;12.240;2023-05-14T08:27:06;95972.97;;;14.23;65.00
12757;BME280;31601;48.042;12.240;2023-05-14T08:29:34;95977.38;;;13.97;65.18
12757;BME280;31601;48.042;12.240;2023-05-14T08:32:01;95968.53;;;13.78;66.00
12757;BME280;31601;48.042;12.240;2023-05-14T08:34:27;95967.09;;;14.21;65.56
12757;BME280;31601;48.042;12.240;2023-05-14T08:36:54;95957.13;;;14.23;65.10
12757;BME280;31601;48.042;12.240;2023-05-14T08:39:20;95966.41;;;14.32;64.79
12757;BME280;31601;48.042;12.240;2023-05-14T08:41:46;95964.19;;;14.29;65.13
12757;BME280;31601;48.042;12.240;2023-05-14T08:44:14;95962.06;;;14.13;65.70
12757;BME280;31601;48.042;12.240;2023-05-14T08:46:45;95962.38;;;13.98;66.95
12757;BME280;31601;48.042;12.240;2023-05-14T08:49:14;95968.97;;;13.75;66.74
12757;BME280;31601;48.042;12.240;2023-05-14T08:51:47;95964.41;;;13.51;67.39
12757;BME280;31601;48.042;12.240;2023-05-14T08:54:14;95960.38;;;13.41;68.46
12757;BME280;31601;48.042;12.240;2023-05-14T08:56:42;95963.88;;;13.02;69.56
12757;BME280;31601;48.042;12.240;2023-05-14T08:59:09;95964.06;;;13.27;68.97
12757;BME280;31601;48.042;12.240;2023-05-14T09:01:36;95974.19;;;13.30;68.40
12757;BME280;31601;48.042;12.240;2023-05-14T09:04:05;95967.13;;;13.11;68.80
12757;BME280;31601;48.042;12.240;2023-05-14T09:06:33;95976.44;;;13.33;69.18
12757;BME280;31601;48.042;12.240;2023-05-14T09:09:00;95969.00;;;13.62;68.07
12757;BME280;31601;48.042;12.240;2023-05-14T09:11:26;95970.09;;;13.48;68.28
12757;BME280;31601;48.042;12.240;2023-05-14T09:13:53;95965.69;;;13.08;68.63
12757;BME280;31601;48.042;12.240;2023-05-14T09:16:19;95966.00;;;13.58;68.69
12757;BME280;31601;48.042;12.240;2023-05-14T09:18:46;95959.97;;;13.31;68.61
12757;BME280;31601;48.042;12.240;2023-05-14T09:21:14;95956.00;;;13.08;69.39
12757;BME280;31601;48.042;12.240;2023-05-14T09:23:41;95953.31;;;13.35;68.24
12757;BME280;31601;48.042;12.240;2023-05-14T09:26:09;95959.03;;;13.12;68.74
12757;BME280;31601;48.042;12.240;2023-05-14T09:28:38;95955.22;;;13.67;67.68
12757;BME280;31601;48.042;12.240;2023-05-14T09:31:05;95964.66;;;13.29;67.84
12757;BME280;31601;48.042;12.240;2023-05-14T09:33:32;95963.44;;;13.32;68.40
12757;BME280;31601;48.042;12.240;2023-05-14T09:35:58;95962.28;;;13.07;68.36
12757;BME280;31601;48.042;12.240;2023-05-14T09:38:29;95956.94;;;13.41;67.91
12757;BME280;31601;48.042;12.240;2023-05-14T09:40:56;95962.44;;;13.26;67.67
12757;BME280;31601;48.042;12.240;2023-05-14T09:43:22;95961.84;;;13.17;67.51
12757;BME280;31601;48.042;12.240;2023-05-14T09:45:49;95952.34;;;13.68;66.79
12757;BME280;31601;48.042;12.240;2023-05-14T09:48:15;95957.75;;;13.41;67.35
12757;BME280;31601;48.042;12.240;2023-05-14T09:50:42;95956.47;;;13.96;65.84
12757;BME280;31601;48.042;12.240;2023-05-14T09:53:09;95949.66;;;13.82;65.25
12757;BME280;31601;48.042;12.240;2023-05-14T09:55:37;95948.31;;;14.36;64.37
12757;BME280;31601;48.042;12.240;2023-05-14T09:58:04;95947.88;;;14.71;64.57
12757;BME280;31601;48.042;12.240;2023-05-14T10:00:31;95946.06;;;15.09;62.76
12757;BME280;31601;48.042;12.240;2023-05-14T10:02:58;95957.84;;;14.69;62.76
12757;BME280;31601;48.042;12.240;2023-05-14T10:05:30;95946.00;;;14.97;62.39
12757;BME280;31601;48.042;12.240;2023-05-14T10:07:58;95948.81;;;15.20;61.46
12757;BME280;31601;48.042;12.240;2023-05-14T10:10:27;95943.97;;;15.54;60.88
12757;BME280;31601;48.042;12.240;2023-05-14T10:12:57;95944.53;;;15.01;61.03
12757;BME280;31601;48.042;12.240;2023-05-14T10:15:29;95945.78;;;14.98;60.88
12757;BME280;31601;48.042;12.240;2023-05-14T10:18:02;95941.88;;;15.56;60.09
12757;BME280;31601;48.042;12.240;2023-05-14T10:20:33;95934.19;;;15.55;60.26
12757;BME280;31601;48.042;12.240;2023-05-14T10:23:00;95938.66;;;15.54;59.54
12757;BME280;31601;48.042;12.240;2023-05-14T10:25:26;95949.38;;;14.60;61.31
12757;BME280;31601;48.042;12.240;2023-05-14T10:27:53;95939.56;;;15.11;61.32
12757;BME280;31601;48.042;12.240;2023-05-14T10:30:21;95935.91;;;15.31;60.03
12757;BME280;31601;48.042;12.240;2023-05-14T10:32:48;95944.25;;;15.65;59.97
12757;BME280;31601;48.042;12.240;2023-05-14T10:35:16;95944.09;;;15.60;59.42
12757;BME280;31601;48.042;12.240;2023-05-14T10:37:43;95936.13;;;15.29;59.47
12757;BME280;31601;48.042;12.240;2023-05-14T10:40:11;95936.31;;;16.37;57.30
12757;BME280;31601;48.042;12.240;2023-05-14T10:42:38;95940.81;;;16.37;57.35
12757;BME280;31601;48.042;12.240;2023-05-14T10:45:09;95940.03;;;16.36;57.10
12757;BME280;31601;48.042;12.240;2023-05-14T10:47:38;95933.28;;;17.23;56.73
12757;BME280;31601;48.042;12.240;2023-05-14T10:50:06;95932.03;;;16.90;56.41
12757;BME280;31601;48.042;12.240;2023-05-14T10:52:34;95935.03;;;16.94;55.12
12757;BME280;31601;48.042;12.240;2023-05-14T10:55:02;95930.41;;;16.11;55.79
12757;BME280;31601;48.042;12.240;2023-05-14T10:57:34;95930.53;;;16.17;56.28
12757;BME280;31601;48.042;12.240;2023-05-14T11:00:01;95938.81;;;16.08;58.12
12757;BME280;31601;48.042;12.240;2023-05-14T11:02:29;95927.50;;;16.01;56.78
12757;BME280;31601;48.042;12.240;2023-05-14T11:04:59;95926.09;;;15.99;56.46
12757;BME280;31601;48.042;12.240;2023-05-14T11:07:29;95928.84;;;15.25;58.13
12757;BME280;31601;48.042;12.240;2023-05-14T11:10:00;95912.19;;;15.73;58.21
12757;BME280;31601;48.042;12.240;2023-05-14T11:12:27;95915.16;;;16.25;56.63
12757;BME280;31601;48.042;12.240;2023-05-14T11:14:53;95908.13;;;16.31;55.60
12757;BME280;31601;48.042;12.240;2023-05-14T11:17:22;95908.84;;;16.97;54.63
12757;BME280;31601;48.042;12.240;2023-05-14T11:19:48;95897.34;;;17.04;53.11
12757;BME280;31601;48.042;12.240;2023-05-14T11:22:16;95895.25;;;16.35;54.72
12757;BME280;31601;48.042;12.240;2023-05-14T11:24:42;95895.44;;;16.21;54.59
12757;BME280;31601;48.042;12.240;2023-05-14T11:27:10;95879.31;;;15.99;56.34
12757;BME280;31601;48.042;12.240;2023-05-14T11:29:36;95885.63;;;15.98;55.95
12757;BME280;31601;48.042;12.240;2023-05-14T11:32:04;95879.84;;;15.59;56.39
12757;BME280;31601;48.042;12.240;2023-05-14T11:34:31;95874.06;;;15.81;57.42
12757;BME280;31601;48.042;12.240;2023-05-14T11:37:01;95877.50;;;16.23;57.58
12757;BME280;31601;48.042;12.240;2023-05-14T11:39:29;95877.63;;;15.86;58.52
12757;BME280;31601;48.042;12.240;2023-05-14T11:41:57;95873.44;;;16.09;56.83
12757;BME280;31601;48.042;12.240;2023-05-14T11:44:23;95865.66;;;16.61;56.34
12757;BME280;31601;48.042;12.240;2023-05-14T11:46:53;95868.53;;;16.36;54.67
12757;BME280;31601;48.042;12.240;2023-05-14T11:49:20;95865.22;;;16.41;54.16
12757;BME280;31601;48.042;12.240;2023-05-14T11:51:47;95857.03;;;16.31;54.29
12757;BME280;31601;48.042;12.240;2023-05-14T11:54:14;95857.81;;;16.78;55.47
12757;BME280;31601;48.042;12.240;2023-05-14T11:56:42;95847.28;;;17.19;54.39
12757;BME280;31601;48.042;12.240;2023-05-14T11:59:09;95850.47;;;16.69;53.62
12757;BME280;31601;48.042;12.240;2023-05-14T12:01:36;95848.94;;;16.85;53.74
12757;BME280;31601;48.042;12.240;2023-05-14T12:04:03;95842.47;;;17.45;53.22
12757;BME280;31601;48.042;12.240;2023-05-14T12:06:30;95837.75;;;17.47;51.97
12757;BME280;31601;48.042;12.240;2023-05-14T12:08:57;95838.69;;;17.69;49.69
12757;BME280;31601;48.042;12.240;2023-05-14T12:11:29;95833.38;;;17.69;50.05
12757;BME280;31601;48.042;12.240;2023-05-14T12:13:58;95836.38;;;17.44;49.83
12757;BME280;31601;48.042;12.240;2023-05-14T12:16:29;95838.00;;;17.05;52.60
12757;BME280;31601;48.042;12.240;2023-05-14T12:18:58;95833.59;;;17.51;52.24
12757;BME280;31601;48.042;12.240;2023-05-14T12:21:25;95838.25;;;17.61;49.49
12757;BME280;31601;48.042;12.240;2023-05-14T12:23:56;95827.94;;;17.47;51.11
12757;BME280;31601;48.042;12.240;2023-05-14T12:26:24;95833.81;;;17.78;50.95
12757;BME280;31601;48.042;12.240;2023-05-14T12:28:58;95822.28;;;18.35;48.40
12757;BME280;31601;48.042;12.240;2023-05-14T12:31:28;95819.94;;;18.22;48.83
12757;BME280;31601;48.042;12.240;2023-05-14T12:33:55;95820.50;;;17.32;50.38
12757;BME280;31601;48.042;12.240;2023-05-14T12:36:21;95820.19;;;18.03;49.10
12757;BME280;31601;48.042;12.240;2023-05-14T12:38:48;95816.81;;;17.33;50.90
12757;BME280;31601;48.042;12.240;2023-05-14T12:41:14;95806.06;;;17.40;49.66
12757;BME280;31601;48.042;12.240;2023-05-14T12:43:42;95800.47;;;17.53;48.85
12757;BME280;31601;48.042;12.240;2023-05-14T12:46:10;95803.59;;;17.22;50.91
12757;BME280;31601;48.042;12.240;2023-05-14T12:48:36;95793.00;;;17.22;50.79
12757;BME280;31601;48.042;12.240;2023-05-14T12:51:03;95788.56;;;16.22;52.61